Time;durP1;ratioP1;P1;durP2;ratioP2;P2;SDS_P1;SDS_P2;PMS_P1;PMS_P2;Temp;Humidity;BMP_temperature;BMP_pressure;BME280_temperature;BME280_humidity;BME280_pressure;Samples;Min_cycle;Max_cycle;Signal;HPM_P1;HPM_P2
2022/11/21 00:05:14;;;;;;;1.93;0.53;;;;;;;4.72;100.00;97329.59;18360552;32;20495;-65
2022/11/21 00:15:17;;;;;;;7.60;0.90;;;;;;;4.74;100.00;97301.53;18358848;32;20069;-65
2022/11/21 00:26:03;;;;;;;3.30;0.70;;;;;;;4.73;100.00;97286.50;18111964;32;20206;-64
2022/11/21 00:36:26;;;;;;;3.20;0.53;;;;;;;4.98;100.00;97266.53;18064924;32;20054;-64
2022/11/21 00:46:28;;;;;;;1.07;0.40;;;;;;;5.16;100.00;97275.41;18371553;32;20128;-64
2022/11/21 00:56:31;;;;;;;1.70;0.50;;;;;;;5.25;100.00;97239.09;18371088;32;20101;-64
2022/11/21 01:06:35;;;;;;;0.73;0.43;;;;;;;5.11;100.00;97211.00;18356149;32;20392;-64
2022/11/21 01:16:48;;;;;;;0.93;0.33;;;;;;;4.94;100.00;97203.78;18369550;32;20095;-64
2022/11/21 01:27:21;;;;;;;0.67;0.20;;;;;;;4.97;100.00;97192.56;18369245;32;20103;-64
2022/11/21 02:00:39;;;;;;;0.57;0.20;;;;;;;5.21;100.00;97170.94;18242672;32;20054;-64
2022/11/21 02:10:53;;;;;;;3.50;0.80;;;;;;;5.32;100.00;97158.50;18367716;32;20057;-64
2022/11/21 02:54:54;;;;;;;5.97;0.43;;;;;;;5.45;100.00;97155.41;18371605;32;20387;-64
2022/11/21 03:04:57;;;;;;;2.70;0.90;;;;;;;5.45;100.00;97154.62;18378206;32;20077;-64
2022/11/21 03:15:16;;;;;;;1.10;0.20;;;;;;;5.57;100.00;97141.91;18376917;32;20505;-64
2022/11/21 03:25:56;;;;;;;2.77;0.70;;;;;;;5.59;100.00;97119.13;18354248;32;20373;-64
2022/11/21 03:47:12;;;;;;;1.17;0.30;;;;;;;5.20;100.00;97121.06;18375359;32;20100;-65
2022/11/21 03:57:56;;;;;;;2.30;0.30;;;;;;;5.25;100.00;97118.47;18360959;32;20105;-64
2022/11/21 04:08:47;;;;;;;3.97;0.50;;;;;;;5.36;100.00;97125.56;18373715;32;20061;-64
2022/11/21 04:30:52;;;;;;;2.60;0.40;;;;;;;5.50;100.00;97123.31;18367621;32;20433;-64
2022/11/21 04:40:56;;;;;;;1.00;0.20;;;;;;;5.57;100.00;97101.66;18371929;32;20068;-64
2022/11/21 05:02:21;;;;;;;1.70;0.30;;;;;;;5.63;100.00;97114.06;18371175;32;20053;-64
2022/11/21 05:24:24;;;;;;;0.93;0.33;;;;;;;5.65;100.00;97095.06;18370425;32;20066;-63
2022/11/21 05:34:34;;;;;;;3.40;0.67;;;;;;;5.63;100.00;97103.31;18366725;32;20125;-64
2022/11/21 05:45:31;;;;;;;4.33;0.93;;;;;;;5.62;100.00;97109.78;18368179;32;20380;-64
2022/11/21 05:55:34;;;;;;;1.73;0.60;;;;;;;5.64;100.00;97112.19;18367960;32;20104;-64
2022/11/21 06:05:37;;;;;;;2.33;0.57;;;;;;;5.66;100.00;97104.69;18367507;32;20050;-64
2022/11/21 06:27:02;;;;;;;3.40;0.60;;;;;;;5.86;100.00;97093.38;18370603;32;20407;-65
2022/11/21 07:10:38;;;;;;;4.23;0.97;;;;;;;5.80;100.00;97079.09;18377874;32;20061;-64
2022/11/21 07:43:27;;;;;;;5.20;0.80;;;;;;;5.75;100.00;97020.84;18374282;32;20365;-64
2022/11/21 07:53:30;;;;;;;4.20;1.00;;;;;;;5.55;100.00;97021.47;18368673;32;20057;-64
2022/11/21 08:15:16;;;;;;;5.17;1.30;;;;;;;6.56;100.00;97013.66;18373781;32;20066;-64
2022/11/21 08:25:27;;;;;;;7.67;1.30;;;;;;;7.01;100.00;96987.28;18359171;32;20138;-64
2022/11/21 08:57:58;;;;;;;3.13;0.50;;;;;;;7.32;100.00;96947.03;18363868;32;20066;-64
2022/11/21 09:08:01;;;;;;;2.90;0.60;;;;;;;7.56;100.00;96911.53;18370439;32;20125;-64
2022/11/21 09:18:04;;;;;;;1.70;0.60;;;;;;;7.60;100.00;96904.53;18369820;32;20471;-65
2022/11/21 09:28:10;;;;;;;6.20;1.30;;;;;;;7.84;100.00;96895.91;18369234;32;20062;-64
2022/11/21 09:38:13;;;;;;;5.07;1.00;;;;;;;8.22;98.55;96869.44;18368850;32;20457;-65
2022/11/21 09:48:45;;;;;;;1.83;0.40;;;;;;;8.42;85.31;96847.81;18367899;32;20099;-65
2022/11/21 09:59:05;;;;;;;2.47;0.60;;;;;;;8.39;91.46;96840.31;18367989;32;20100;-65
2022/11/21 10:09:46;;;;;;;1.53;0.60;;;;;;;8.63;93.21;96820.81;18367125;32;20094;-65
2022/11/21 10:20:09;;;;;;;4.73;0.70;;;;;;;9.00;93.11;96806.00;18106139;32;20126;-64
2022/11/21 10:41:50;;;;;;;3.10;1.17;;;;;;;9.52;88.44;96738.13;18097074;32;20542;-65
2022/11/21 11:03:24;;;;;;;3.10;0.80;;;;;;;9.45;82.44;96663.72;18167359;32;20126;-64
2022/11/21 11:13:35;;;;;;;5.47;1.10;;;;;;;9.21;85.02;96633.25;18157761;32;20136;-64
2022/11/21 11:23:50;;;;;;;4.23;1.03;;;;;;;9.08;87.60;96605.88;18178339;32;20082;-64
2022/11/21 11:34:16;;;;;;;4.18;1.60;;;;;;;9.42;88.37;96580.66;18288407;32;20442;-64
2022/11/21 11:55:33;;;;;;;5.60;1.47;;;;;;;9.63;87.87;96508.34;18371771;32;20106;-65
2022/11/21 12:05:39;;;;;;;4.87;1.03;;;;;;;9.68;87.62;96482.38;18374713;32;20058;-64
2022/11/21 12:15:51;;;;;;;3.67;1.10;;;;;;;9.80;86.58;96453.84;18359874;32;20081;-64
2022/11/21 12:26:32;;;;;;;3.73;1.20;;;;;;;9.93;85.00;96425.25;18364939;32;20107;-64
2022/11/21 12:36:51;;;;;;;5.25;1.37;;;;;;;10.07;83.72;96384.81;18372570;32;20076;-64
2022/11/21 13:09:14;;;;;;;3.30;0.90;;;;;;;9.09;82.71;96321.66;18370583;32;20062;-65
2022/11/21 13:19:54;;;;;;;3.80;0.80;;;;;;;8.98;83.93;96291.38;18363560;32;20096;-65
2022/11/21 13:30:09;;;;;;;2.20;0.50;;;;;;;9.25;83.04;96265.59;18368672;32;20098;-64
2022/11/21 13:40:36;;;;;;;3.07;0.60;;;;;;;9.28;84.08;96248.03;18366910;32;20128;-64
2022/11/21 13:50:58;;;;;;;4.83;0.93;;;;;;;9.26;80.75;96210.56;18368073;32;20053;-64
2022/11/21 14:01:20;;;;;;;4.17;0.97;;;;;;;9.22;82.95;96184.47;18368147;32;20058;-65
2022/11/21 14:12:18;;;;;;;7.20;0.83;;;;;;;9.33;83.38;96167.00;18367539;32;20046;-64
2022/11/21 14:22:36;;;;;;;1.80;0.63;;;;;;;9.18;85.06;96141.12;18364174;32;20099;-65
2022/11/21 14:32:46;;;;;;;2.33;0.50;;;;;;;9.00;84.84;96140.09;18366880;32;20062;-65
2022/11/21 14:42:56;;;;;;;1.77;0.63;;;;;;;8.88;84.45;96120.91;18352695;32;20099;-64
2022/11/21 14:53:03;;;;;;;2.00;0.40;;;;;;;8.61;84.95;96107.09;18375435;32;20117;-65
2022/11/21 15:03:22;;;;;;;1.67;0.50;;;;;;;8.30;84.02;96082.53;18378518;32;20087;-65
2022/11/21 15:13:59;;;;;;;2.00;0.53;;;;;;;7.99;83.97;96048.03;18371297;32;20096;-65
2022/11/21 15:24:41;;;;;;;0.97;0.50;;;;;;;7.73;83.68;96021.50;18178345;32;20120;-65
2022/11/21 15:34:45;;;;;;;1.77;0.50;;;;;;;7.48;85.48;96014.59;18177900;32;20126;-65
2022/11/21 15:45:25;;;;;;;2.23;0.60;;;;;;;7.30;86.23;96000.06;18177310;32;20109;-64
2022/11/21 15:55:30;;;;;;;2.70;0.53;;;;;;;7.23;86.36;95973.53;18052026;32;20529;-65
2022/11/21 16:05:33;;;;;;;1.30;0.50;;;;;;;7.08;86.06;95971.84;18162083;32;20446;-65
2022/11/21 16:15:38;;;;;;;1.80;0.40;;;;;;;6.93;89.52;95955.94;18175429;32;20385;-65
2022/11/21 16:37:17;;;;;;;3.97;0.70;;;;;;;6.77;94.57;95931.97;18049648;32;20578;-64
2022/11/21 16:47:19;;;;;;;1.43;0.60;;;;;;;6.71;97.71;95933.09;18048645;32;20081;-64
2022/11/21 16:57:22;;;;;;;2.63;0.67;;;;;;;6.66;98.91;95938.56;18048251;32;20067;-65
2022/11/21 17:07:25;;;;;;;2.40;0.50;;;;;;;6.59;100.00;95943.44;18160704;32;20108;-64
2022/11/21 17:17:28;;;;;;;2.20;0.70;;;;;;;6.57;100.00;95926.84;18292395;32;20110;-65
2022/11/21 17:27:32;;;;;;;2.07;0.73;;;;;;;6.54;100.00;95916.69;18291976;32;20066;-64
2022/11/21 17:37:35;;;;;;;2.00;0.90;;;;;;;6.54;100.00;95919.38;18305353;32;20091;-65
2022/11/21 17:47:40;;;;;;;2.83;0.70;;;;;;;6.55;100.00;95907.53;18317752;32;20116;-65
2022/11/21 17:57:45;;;;;;;2.60;1.00;;;;;;;6.65;100.00;95903.94;18368017;32;20110;-65
2022/11/21 18:07:48;;;;;;;2.53;0.73;;;;;;;6.70;100.00;95910.03;18367473;32;20088;-65
2022/11/21 18:17:51;;;;;;;2.03;0.90;;;;;;;6.73;100.00;95901.41;18367462;32;20139;-65
2022/11/21 18:27:55;;;;;;;1.00;0.57;;;;;;;6.71;100.00;95913.50;18383383;32;20370;-64
2022/11/21 18:38:22;;;;;;;1.83;0.83;;;;;;;6.68;100.00;95908.72;18388218;32;20069;-63
2022/11/21 18:48:50;;;;;;;4.90;1.00;;;;;;;6.58;100.00;95917.72;18387259;32;20084;-63
2022/11/21 19:10:39;;;;;;;2.37;0.87;;;;;;;6.38;100.00;95908.78;18386966;32;20057;-64
2022/11/21 20:04:39;;;;;;;2.17;1.33;;;;;;;6.23;100.00;95861.44;18372601;32;20050;-63
2022/11/21 20:26:36;;;;;;;4.37;1.40;;;;;;;6.20;100.00;95835.19;18373518;32;20393;-63
2022/11/21 20:47:26;;;;;;;2.57;1.10;;;;;;;6.22;100.00;95824.16;18234027;32;20082;-63
2022/11/21 20:57:38;;;;;;;1.87;1.10;;;;;;;6.24;100.00;95835.44;18228427;32;20070;-63
2022/11/21 21:08:01;;;;;;;1.30;1.00;;;;;;;6.23;100.00;95836.50;18297552;32;20061;-63
2022/11/21 21:18:24;;;;;;;1.50;0.90;;;;;;;6.29;100.00;95838.06;18301986;32;20098;-63
2022/11/21 21:29:08;;;;;;;1.70;0.87;;;;;;;6.31;100.00;95845.81;18317305;32;20065;-64
2022/11/21 21:39:15;;;;;;;1.77;0.70;;;;;;;6.29;100.00;95848.78;18368969;32;20110;-64
2022/11/21 21:49:33;;;;;;;2.30;0.63;;;;;;;6.30;100.00;95855.75;18368765;32;20102;-63
2022/11/21 22:11:19;;;;;;;0.70;0.40;;;;;;;6.33;100.00;95865.91;18364610;32;20062;-63
2022/11/21 22:32:52;;;;;;;0.97;0.40;;;;;;;6.31;100.00;95868.06;18366871;32;20106;-63
2022/11/21 22:42:56;;;;;;;1.30;0.40;;;;;;;6.32;100.00;95879.59;18352976;32;20176;-63
2022/11/21 22:53:36;;;;;;;1.27;0.20;;;;;;;6.40;100.00;95882.47;18366490;32;20062;-64
2022/11/21 23:03:42;;;;;;;0.70;0.40;;;;;;;6.50;100.00;95873.50;18364763;32;20102;-64
2022/11/21 23:14:26;;;;;;;0.53;0.23;;;;;;;6.53;100.00;95864.84;18373697;32;20062;-63
2022/11/21 23:24:30;;;;;;;0.73;0.40;;;;;;;6.46;100.00;95869.00;18370677;32;20077;-64
2022/11/21 23:46:08;;;;;;;2.37;0.50;;;;;;;6.23;100.00;95871.41;18376055;32;20111;-63
